sensor_id;sensor_type;location;lat;lon;timestamp;P1;durP1;ratioP1;P2;durP2;ratioP2
37785;SDS011;23625;48.784;9.336;2024-03-08T00:00:58;40.78;;;16.75;;
37785;SDS011;23625;48.784;9.336;2024-03-08T00:03:24;45.33;;;17.75;;
37785;SDS011;23625;48.784;9.336;2024-03-08T00:05:49;45.00;;;17.90;;
37785;SDS011;23625;48.784;9.336;2024-03-08T00:08:15;48.08;;;18.45;;
37785;SDS011;23625;48.784;9.336;2024-03-08T00:10:40;43.72;;;17.85;;
37785;SDS011;23625;48.784;9.336;2024-03-08T00:13:06;49.63;;;18.90;;
37785;SDS011;23625;48.784;9.336;2024-03-08T00:15:31;49.97;;;18.55;;
37785;SDS011;23625;48.784;9.336;2024-03-08T00:17:57;48.45;;;17.60;;
37785;SDS011;23625;48.784;9.336;2024-03-08T00:20:23;42.85;;;15.88;;
37785;SDS011;23625;48.784;9.336;2024-03-08T00:22:48;51.03;;;17.95;;
37785;SDS011;23625;48.784;9.336;2024-03-08T00:25:14;47.95;;;17.52;;
37785;SDS011;23625;48.784;9.336;2024-03-08T00:27:41;43.72;;;17.42;;
37785;SDS011;23625;48.784;9.336;2024-03-08T00:30:06;40.83;;;17.98;;
37785;SDS011;23625;48.784;9.336;2024-03-08T00:32:33;53.63;;;19.52;;
37785;SDS011;23625;48.784;9.336;2024-03-08T00:34:59;43.75;;;17.65;;
37785;SDS011;23625;48.784;9.336;2024-03-08T00:37:24;45.88;;;17.77;;
37785;SDS011;23625;48.784;9.336;2024-03-08T00:39:50;45.10;;;16.83;;
37785;SDS011;23625;48.784;9.336;2024-03-08T00:42:16;46.10;;;17.08;;
37785;SDS011;23625;48.784;9.336;2024-03-08T00:44:43;46.10;;;17.42;;
37785;SDS011;23625;48.784;9.336;2024-03-08T00:47:08;45.10;;;18.17;;
37785;SDS011;23625;48.784;9.336;2024-03-08T00:49:34;49.65;;;18.33;;
37785;SDS011;23625;48.784;9.336;2024-03-08T00:52:01;49.15;;;18.60;;
37785;SDS011;23625;48.784;9.336;2024-03-08T00:54:27;42.03;;;17.45;;
37785;SDS011;23625;48.784;9.336;2024-03-08T00:56:52;39.08;;;15.35;;
37785;SDS011;23625;48.784;9.336;2024-03-08T00:59:18;42.13;;;17.42;;
37785;SDS011;23625;48.784;9.336;2024-03-08T01:01:44;51.38;;;17.92;;
37785;SDS011;23625;48.784;9.336;2024-03-08T01:04:10;46.33;;;16.73;;
37785;SDS011;23625;48.784;9.336;2024-03-08T01:06:36;46.40;;;17.33;;
37785;SDS011;23625;48.784;9.336;2024-03-08T01:09:02;44.38;;;17.65;;
37785;SDS011;23625;48.784;9.336;2024-03-08T01:11:28;46.88;;;19.67;;
37785;SDS011;23625;48.784;9.336;2024-03-08T01:13:53;44.75;;;17.77;;
37785;SDS011;23625;48.784;9.336;2024-03-08T01:16:19;50.88;;;19.45;;
37785;SDS011;23625;48.784;9.336;2024-03-08T01:18:47;43.90;;;17.65;;
37785;SDS011;23625;48.784;9.336;2024-03-08T01:21:13;51.95;;;18.00;;
37785;SDS011;23625;48.784;9.336;2024-03-08T01:23:38;48.17;;;17.90;;
37785;SDS011;23625;48.784;9.336;2024-03-08T01:26:04;52.38;;;18.23;;
37785;SDS011;23625;48.784;9.336;2024-03-08T01:28:30;47.33;;;18.63;;
37785;SDS011;23625;48.784;9.336;2024-03-08T01:30:56;38.70;;;16.50;;
37785;SDS011;23625;48.784;9.336;2024-03-08T01:33:22;48.92;;;18.63;;
37785;SDS011;23625;48.784;9.336;2024-03-08T01:35:50;53.42;;;18.40;;
37785;SDS011;23625;48.784;9.336;2024-03-08T01:38:19;47.97;;;18.73;;
37785;SDS011;23625;48.784;9.336;2024-03-08T01:40:48;47.13;;;18.23;;
37785;SDS011;23625;48.784;9.336;2024-03-08T01:43:16;42.63;;;17.33;;
37785;SDS011;23625;48.784;9.336;2024-03-08T01:45:46;47.05;;;18.90;;
37785;SDS011;23625;48.784;9.336;2024-03-08T01:48:12;47.58;;;19.85;;
37785;SDS011;23625;48.784;9.336;2024-03-08T01:50:40;48.97;;;18.63;;
37785;SDS011;23625;48.784;9.336;2024-03-08T01:53:07;57.00;;;18.92;;
37785;SDS011;23625;48.784;9.336;2024-03-08T01:55:35;38.53;;;16.65;;
37785;SDS011;23625;48.784;9.336;2024-03-08T01:58:01;48.63;;;18.42;;
37785;SDS011;23625;48.784;9.336;2024-03-08T02:00:29;51.33;;;18.02;;
37785;SDS011;23625;48.784;9.336;2024-03-08T02:02:55;46.85;;;18.05;;
37785;SDS011;23625;48.784;9.336;2024-03-08T02:05:22;45.97;;;17.63;;
37785;SDS011;23625;48.784;9.336;2024-03-08T02:07:48;47.72;;;18.38;;
37785;SDS011;23625;48.784;9.336;2024-03-08T02:10:14;49.50;;;18.58;;
37785;SDS011;23625;48.784;9.336;2024-03-08T02:12:40;57.88;;;18.88;;
37785;SDS011;23625;48.784;9.336;2024-03-08T02:15:06;55.17;;;19.25;;
37785;SDS011;23625;48.784;9.336;2024-03-08T02:17:32;47.30;;;18.63;;
37785;SDS011;23625;48.784;9.336;2024-03-08T02:19:58;47.47;;;18.35;;
37785;SDS011;23625;48.784;9.336;2024-03-08T02:22:26;49.10;;;15.88;;
37785;SDS011;23625;48.784;9.336;2024-03-08T02:24:53;44.28;;;16.00;;
37785;SDS011;23625;48.784;9.336;2024-03-08T02:27:23;48.70;;;17.38;;
37785;SDS011;23625;48.784;9.336;2024-03-08T02:29:50;46.67;;;17.23;;
37785;SDS011;23625;48.784;9.336;2024-03-08T02:32:23;45.75;;;17.48;;
37785;SDS011;23625;48.784;9.336;2024-03-08T02:34:49;47.95;;;18.33;;
37785;SDS011;23625;48.784;9.336;2024-03-08T02:37:16;51.35;;;20.13;;
37785;SDS011;23625;48.784;9.336;2024-03-08T02:39:42;50.20;;;17.70;;
37785;SDS011;23625;48.784;9.336;2024-03-08T02:42:08;47.78;;;18.48;;
37785;SDS011;23625;48.784;9.336;2024-03-08T02:44:33;46.80;;;17.65;;
37785;SDS011;23625;48.784;9.336;2024-03-08T02:46:59;41.03;;;16.63;;
37785;SDS011;23625;48.784;9.336;2024-03-08T02:49:28;49.78;;;17.98;;
37785;SDS011;23625;48.784;9.336;2024-03-08T02:51:54;45.78;;;17.27;;
37785;SDS011;23625;48.784;9.336;2024-03-08T02:54:22;42.58;;;16.02;;
37785;SDS011;23625;48.784;9.336;2024-03-08T02:56:48;44.25;;;17.20;;
37785;SDS011;23625;48.784;9.336;2024-03-08T02:59:17;44.22;;;16.08;;
37785;SDS011;23625;48.784;9.336;2024-03-08T03:01:43;50.92;;;18.42;;
37785;SDS011;23625;48.784;9.336;2024-03-08T03:04:09;49.45;;;17.88;;
37785;SDS011;23625;48.784;9.336;2024-03-08T03:06:35;49.75;;;16.77;;
37785;SDS011;23625;48.784;9.336;2024-03-08T03:09:00;41.88;;;16.50;;
37785;SDS011;23625;48.784;9.336;2024-03-08T03:11:26;44.97;;;17.38;;
37785;SDS011;23625;48.784;9.336;2024-03-08T03:13:52;48.58;;;16.67;;
37785;SDS011;23625;48.784;9.336;2024-03-08T03:16:18;46.25;;;16.67;;
37785;SDS011;23625;48.784;9.336;2024-03-08T03:18:47;48.08;;;17.98;;
37785;SDS011;23625;48.784;9.336;2024-03-08T03:21:13;56.53;;;19.70;;
37785;SDS011;23625;48.784;9.336;2024-03-08T03:23:39;44.60;;;17.42;;
37785;SDS011;23625;48.784;9.336;2024-03-08T03:26:06;46.72;;;17.58;;
37785;SDS011;23625;48.784;9.336;2024-03-08T03:28:37;45.03;;;16.67;;
37785;SDS011;23625;48.784;9.336;2024-03-08T03:31:04;45.88;;;16.38;;
37785;SDS011;23625;48.784;9.336;2024-03-08T03:33:32;43.75;;;17.17;;
37785;SDS011;23625;48.784;9.336;2024-03-08T03:36:02;42.90;;;15.45;;
37785;SDS011;23625;48.784;9.336;2024-03-08T03:38:30;44.20;;;16.45;;
37785;SDS011;23625;48.784;9.336;2024-03-08T03:40:55;43.05;;;15.25;;
37785;SDS011;23625;48.784;9.336;2024-03-08T03:43:22;46.63;;;17.80;;
37785;SDS011;23625;48.784;9.336;2024-03-08T03:45:48;49.42;;;18.77;;
37785;SDS011;23625;48.784;9.336;2024-03-08T03:48:14;46.08;;;16.70;;
37785;SDS011;23625;48.784;9.336;2024-03-08T03:50:39;41.10;;;17.80;;
37785;SDS011;23625;48.784;9.336;2024-03-08T03:53:05;47.45;;;17.02;;
37785;SDS011;23625;48.784;9.336;2024-03-08T03:55:34;41.80;;;16.30;;
37785;SDS011;23625;48.784;9.336;2024-03-08T03:58:03;44.70;;;16.58;;
37785;SDS011;23625;48.784;9.336;2024-03-08T04:00:29;46.70;;;15.27;;
37785;SDS011;23625;48.784;9.336;2024-03-08T04:02:55;44.90;;;17.00;;
37785;SDS011;23625;48.784;9.336;2024-03-08T04:05:23;46.50;;;16.42;;
37785;SDS011;23625;48.784;9.336;2024-03-08T04:07:49;42.03;;;17.60;;
37785;SDS011;23625;48.784;9.336;2024-03-08T04:10:15;47.42;;;18.30;;
37785;SDS011;23625;48.784;9.336;2024-03-08T04:12:40;53.35;;;18.08;;
37785;SDS011;23625;48.784;9.336;2024-03-08T04:15:06;48.22;;;16.98;;
37785;SDS011;23625;48.784;9.336;2024-03-08T04:17:32;57.78;;;20.58;;
37785;SDS011;23625;48.784;9.336;2024-03-08T04:20:02;57.17;;;19.23;;
37785;SDS011;23625;48.784;9.336;2024-03-08T04:22:33;54.25;;;20.15;;
37785;SDS011;23625;48.784;9.336;2024-03-08T04:25:00;62.70;;;22.45;;
37785;SDS011;23625;48.784;9.336;2024-03-08T04:27:27;56.13;;;19.88;;
37785;SDS011;23625;48.784;9.336;2024-03-08T04:29:52;48.15;;;19.02;;
37785;SDS011;23625;48.784;9.336;2024-03-08T04:32:18;60.30;;;21.10;;
37785;SDS011;23625;48.784;9.336;2024-03-08T04:34:43;57.72;;;22.15;;
37785;SDS011;23625;48.784;9.336;2024-03-08T04:37:09;66.88;;;24.73;;
37785;SDS011;23625;48.784;9.336;2024-03-08T04:39:38;65.20;;;22.77;;
37785;SDS011;23625;48.784;9.336;2024-03-08T04:42:04;65.68;;;24.85;;
37785;SDS011;23625;48.784;9.336;2024-03-08T04:44:34;66.35;;;23.55;;
37785;SDS011;23625;48.784;9.336;2024-03-08T04:47:01;61.88;;;22.65;;
37785;SDS011;23625;48.784;9.336;2024-03-08T04:49:26;68.35;;;24.17;;
37785;SDS011;23625;48.784;9.336;2024-03-08T04:51:53;65.05;;;24.80;;
37785;SDS011;23625;48.784;9.336;2024-03-08T04:54:18;61.25;;;24.85;;
37785;SDS011;23625;48.784;9.336;2024-03-08T04:56:44;65.07;;;25.20;;
37785;SDS011;23625;48.784;9.336;2024-03-08T04:59:10;61.78;;;22.90;;
37785;SDS011;23625;48.784;9.336;2024-03-08T05:01:35;57.58;;;23.60;;
37785;SDS011;23625;48.784;9.336;2024-03-08T05:04:02;79.20;;;29.75;;
37785;SDS011;23625;48.784;9.336;2024-03-08T05:06:28;79.85;;;27.77;;
37785;SDS011;23625;48.784;9.336;2024-03-08T05:08:55;60.42;;;24.45;;
37785;SDS011;23625;48.784;9.336;2024-03-08T05:11:21;57.47;;;22.67;;
37785;SDS011;23625;48.784;9.336;2024-03-08T05:13:46;67.28;;;25.90;;
37785;SDS011;23625;48.784;9.336;2024-03-08T05:16:12;58.63;;;22.00;;
37785;SDS011;23625;48.784;9.336;2024-03-08T05:18:40;68.47;;;23.17;;
37785;SDS011;23625;48.784;9.336;2024-03-08T05:21:07;57.53;;;21.73;;
37785;SDS011;23625;48.784;9.336;2024-03-08T05:23:34;57.72;;;22.65;;
37785;SDS011;23625;48.784;9.336;2024-03-08T05:26:00;48.65;;;20.90;;
37785;SDS011;23625;48.784;9.336;2024-03-08T05:28:26;53.95;;;22.50;;
37785;SDS011;23625;48.784;9.336;2024-03-08T05:30:51;55.33;;;22.02;;
37785;SDS011;23625;48.784;9.336;2024-03-08T05:33:17;48.45;;;20.45;;
37785;SDS011;23625;48.784;9.336;2024-03-08T05:35:44;61.22;;;22.70;;
37785;SDS011;23625;48.784;9.336;2024-03-08T05:38:09;56.40;;;22.75;;
37785;SDS011;23625;48.784;9.336;2024-03-08T05:40:37;54.88;;;21.95;;
37785;SDS011;23625;48.784;9.336;2024-03-08T05:43:03;53.65;;;22.33;;
37785;SDS011;23625;48.784;9.336;2024-03-08T05:45:29;56.45;;;21.83;;
37785;SDS011;23625;48.784;9.336;2024-03-08T05:47:54;55.42;;;21.52;;
37785;SDS011;23625;48.784;9.336;2024-03-08T05:50:20;58.55;;;25.38;;
37785;SDS011;23625;48.784;9.336;2024-03-08T05:52:45;56.78;;;23.40;;
37785;SDS011;23625;48.784;9.336;2024-03-08T05:55:12;54.05;;;21.17;;
37785;SDS011;23625;48.784;9.336;2024-03-08T05:57:39;59.25;;;23.30;;
37785;SDS011;23625;48.784;9.336;2024-03-08T06:00:05;53.53;;;22.48;;
37785;SDS011;23625;48.784;9.336;2024-03-08T06:02:31;59.42;;;24.67;;
37785;SDS011;23625;48.784;9.336;2024-03-08T06:04:57;59.22;;;22.80;;
37785;SDS011;23625;48.784;9.336;2024-03-08T06:07:23;58.75;;;20.83;;
37785;SDS011;23625;48.784;9.336;2024-03-08T06:09:49;54.22;;;22.15;;
37785;SDS011;23625;48.784;9.336;2024-03-08T06:12:14;54.67;;;21.92;;
37785;SDS011;23625;48.784;9.336;2024-03-08T06:14:44;69.07;;;24.48;;
37785;SDS011;23625;48.784;9.336;2024-03-08T06:17:10;70.93;;;23.75;;
37785;SDS011;23625;48.784;9.336;2024-03-08T06:19:36;66.75;;;29.05;;
37785;SDS011;23625;48.784;9.336;2024-03-08T06:22:02;72.07;;;30.77;;
37785;SDS011;23625;48.784;9.336;2024-03-08T06:24:30;77.00;;;28.02;;
37785;SDS011;23625;48.784;9.336;2024-03-08T06:26:56;62.70;;;25.23;;
37785;SDS011;23625;48.784;9.336;2024-03-08T06:29:22;66.78;;;24.67;;
37785;SDS011;23625;48.784;9.336;2024-03-08T06:31:48;70.00;;;28.73;;
37785;SDS011;23625;48.784;9.336;2024-03-08T06:34:14;70.43;;;29.63;;
37785;SDS011;23625;48.784;9.336;2024-03-08T06:36:40;59.60;;;24.38;;
37785;SDS011;23625;48.784;9.336;2024-03-08T06:39:06;59.75;;;25.70;;
37785;SDS011;23625;48.784;9.336;2024-03-08T06:41:35;63.28;;;23.08;;
37785;SDS011;23625;48.784;9.336;2024-03-08T06:44:01;65.93;;;22.65;;
37785;SDS011;23625;48.784;9.336;2024-03-08T06:46:27;54.88;;;21.98;;
37785;SDS011;23625;48.784;9.336;2024-03-08T06:48:53;52.63;;;22.50;;
37785;SDS011;23625;48.784;9.336;2024-03-08T06:51:18;60.05;;;21.90;;
37785;SDS011;23625;48.784;9.336;2024-03-08T06:53:44;55.17;;;21.63;;
37785;SDS011;23625;48.784;9.336;2024-03-08T06:56:10;55.17;;;22.90;;
37785;SDS011;23625;48.784;9.336;2024-03-08T06:58:36;71.50;;;29.27;;
37785;SDS011;23625;48.784;9.336;2024-03-08T07:01:02;61.17;;;26.27;;
37785;SDS011;23625;48.784;9.336;2024-03-08T07:03:30;51.53;;;21.15;;
37785;SDS011;23625;48.784;9.336;2024-03-08T07:05:57;55.03;;;21.63;;
37785;SDS011;23625;48.784;9.336;2024-03-08T07:08:23;50.42;;;21.67;;
37785;SDS011;23625;48.784;9.336;2024-03-08T07:10:49;54.92;;;22.80;;
37785;SDS011;23625;48.784;9.336;2024-03-08T07:13:15;55.72;;;22.80;;
37785;SDS011;23625;48.784;9.336;2024-03-08T07:15:41;51.97;;;20.45;;
37785;SDS011;23625;48.784;9.336;2024-03-08T07:18:08;60.17;;;22.65;;
37785;SDS011;23625;48.784;9.336;2024-03-08T07:20:34;50.65;;;22.52;;
37785;SDS011;23625;48.784;9.336;2024-03-08T07:23:00;54.05;;;21.05;;
37785;SDS011;23625;48.784;9.336;2024-03-08T07:25:26;48.05;;;20.98;;
37785;SDS011;23625;48.784;9.336;2024-03-08T07:27:54;52.88;;;21.02;;
37785;SDS011;23625;48.784;9.336;2024-03-08T07:30:21;49.38;;;19.40;;
37785;SDS011;23625;48.784;9.336;2024-03-08T07:35:32;47.37;;;20.53;;
37785;SDS011;23625;48.784;9.336;2024-03-08T07:38:02;51.08;;;20.65;;
37785;SDS011;23625;48.784;9.336;2024-03-08T07:40:31;50.00;;;20.73;;
37785;SDS011;23625;48.784;9.336;2024-03-08T07:43:00;59.85;;;21.73;;
37785;SDS011;23625;48.784;9.336;2024-03-08T07:45:27;50.35;;;20.83;;
37785;SDS011;23625;48.784;9.336;2024-03-08T07:47:52;85.72;;;35.28;;
37785;SDS011;23625;48.784;9.336;2024-03-08T07:50:18;93.18;;;36.35;;
37785;SDS011;23625;48.784;9.336;2024-03-08T07:52:44;51.28;;;21.65;;
37785;SDS011;23625;48.784;9.336;2024-03-08T07:55:10;51.72;;;20.40;;
37785;SDS011;23625;48.784;9.336;2024-03-08T07:57:35;49.35;;;21.00;;
37785;SDS011;23625;48.784;9.336;2024-03-08T08:00:03;51.08;;;21.48;;
37785;SDS011;23625;48.784;9.336;2024-03-08T08:02:33;45.50;;;19.65;;
37785;SDS011;23625;48.784;9.336;2024-03-08T08:05:00;53.88;;;21.00;;
37785;SDS011;23625;48.784;9.336;2024-03-08T08:07:26;53.10;;;20.80;;
37785;SDS011;23625;48.784;9.336;2024-03-08T08:09:52;49.42;;;20.00;;
37785;SDS011;23625;48.784;9.336;2024-03-08T08:12:18;55.05;;;21.55;;
37785;SDS011;23625;48.784;9.336;2024-03-08T08:14:44;48.63;;;19.70;;
37785;SDS011;23625;48.784;9.336;2024-03-08T08:17:11;53.50;;;20.85;;
37785;SDS011;23625;48.784;9.336;2024-03-08T08:19:37;46.50;;;19.63;;
37785;SDS011;23625;48.784;9.336;2024-03-08T08:22:03;46.25;;;19.27;;
37785;SDS011;23625;48.784;9.336;2024-03-08T08:24:29;45.33;;;20.58;;
37785;SDS011;23625;48.784;9.336;2024-03-08T08:26:54;48.17;;;19.73;;
37785;SDS011;23625;48.784;9.336;2024-03-08T08:29:20;47.25;;;19.98;;
37785;SDS011;23625;48.784;9.336;2024-03-08T08:31:47;46.90;;;19.08;;
37785;SDS011;23625;48.784;9.336;2024-03-08T08:34:12;44.38;;;19.58;;
37785;SDS011;23625;48.784;9.336;2024-03-08T08:36:38;45.13;;;18.95;;
37785;SDS011;23625;48.784;9.336;2024-03-08T08:39:04;52.75;;;19.45;;
37785;SDS011;23625;48.784;9.336;2024-03-08T08:41:37;45.05;;;19.25;;
37785;SDS011;23625;48.784;9.336;2024-03-08T08:44:03;44.83;;;19.38;;
37785;SDS011;23625;48.784;9.336;2024-03-08T08:46:28;43.92;;;19.25;;
37785;SDS011;23625;48.784;9.336;2024-03-08T08:48:54;50.80;;;19.73;;
37785;SDS011;23625;48.784;9.336;2024-03-08T08:51:20;39.65;;;17.38;;
37785;SDS011;23625;48.784;9.336;2024-03-08T08:53:46;45.17;;;18.77;;
37785;SDS011;23625;48.784;9.336;2024-03-08T08:56:12;55.80;;;22.83;;
37785;SDS011;23625;48.784;9.336;2024-03-08T08:58:41;52.03;;;21.75;;
37785;SDS011;23625;48.784;9.336;2024-03-08T09:01:08;45.47;;;19.13;;
37785;SDS011;23625;48.784;9.336;2024-03-08T09:03:37;46.30;;;19.63;;
37785;SDS011;23625;48.784;9.336;2024-03-08T09:06:08;41.83;;;17.85;;
37785;SDS011;23625;48.784;9.336;2024-03-08T09:08:35;46.28;;;19.35;;
37785;SDS011;23625;48.784;9.336;2024-03-08T09:11:01;47.85;;;19.00;;
37785;SDS011;23625;48.784;9.336;2024-03-08T09:13:27;43.67;;;18.33;;
37785;SDS011;23625;48.784;9.336;2024-03-08T09:15:52;47.60;;;18.45;;
37785;SDS011;23625;48.784;9.336;2024-03-08T09:18:18;50.75;;;19.27;;
37785;SDS011;23625;48.784;9.336;2024-03-08T09:20:44;39.10;;;18.20;;
37785;SDS011;23625;48.784;9.336;2024-03-08T09:23:10;44.25;;;18.20;;
37785;SDS011;23625;48.784;9.336;2024-03-08T09:25:35;40.85;;;18.58;;
37785;SDS011;23625;48.784;9.336;2024-03-08T09:28:01;45.15;;;17.63;;
37785;SDS011;23625;48.784;9.336;2024-03-08T09:30:26;45.78;;;17.90;;
37785;SDS011;23625;48.784;9.336;2024-03-08T09:32:52;44.42;;;18.92;;
37785;SDS011;23625;48.784;9.336;2024-03-08T09:35:18;46.00;;;18.00;;
37785;SDS011;23625;48.784;9.336;2024-03-08T09:37:44;44.30;;;19.15;;
37785;SDS011;23625;48.784;9.336;2024-03-08T09:40:12;40.67;;;18.05;;
37785;SDS011;23625;48.784;9.336;2024-03-08T09:42:40;44.47;;;18.58;;
37785;SDS011;23625;48.784;9.336;2024-03-08T09:45:10;45.33;;;19.20;;
37785;SDS011;23625;48.784;9.336;2024-03-08T09:47:40;45.22;;;18.85;;
37785;SDS011;23625;48.784;9.336;2024-03-08T09:50:08;48.65;;;19.95;;
37785;SDS011;23625;48.784;9.336;2024-03-08T09:52:35;45.58;;;19.63;;
37785;SDS011;23625;48.784;9.336;2024-03-08T09:55:05;43.05;;;19.67;;
37785;SDS011;23625;48.784;9.336;2024-03-08T09:57:32;44.97;;;18.08;;
37785;SDS011;23625;48.784;9.336;2024-03-08T09:59:59;45.33;;;18.58;;
37785;SDS011;23625;48.784;9.336;2024-03-08T10:02:24;41.58;;;18.70;;
37785;SDS011;23625;48.784;9.336;2024-03-08T10:04:51;41.55;;;17.58;;
37785;SDS011;23625;48.784;9.336;2024-03-08T10:07:18;44.45;;;18.35;;
37785;SDS011;23625;48.784;9.336;2024-03-08T10:09:44;43.03;;;17.80;;
37785;SDS011;23625;48.784;9.336;2024-03-08T10:12:18;38.95;;;17.58;;
37785;SDS011;23625;48.784;9.336;2024-03-08T10:14:45;46.22;;;19.60;;
37785;SDS011;23625;48.784;9.336;2024-03-08T10:17:11;46.13;;;17.92;;
37785;SDS011;23625;48.784;9.336;2024-03-08T10:19:37;47.10;;;19.45;;
37785;SDS011;23625;48.784;9.336;2024-03-08T10:22:04;52.00;;;19.30;;
37785;SDS011;23625;48.784;9.336;2024-03-08T10:24:30;45.85;;;19.00;;
37785;SDS011;23625;48.784;9.336;2024-03-08T10:26:59;39.97;;;18.17;;
37785;SDS011;23625;48.784;9.336;2024-03-08T10:29:26;43.58;;;17.30;;
37785;SDS011;23625;48.784;9.336;2024-03-08T10:31:53;40.13;;;18.27;;
37785;SDS011;23625;48.784;9.336;2024-03-08T10:34:20;47.97;;;17.73;;
37785;SDS011;23625;48.784;9.336;2024-03-08T10:36:48;42.72;;;18.17;;
37785;SDS011;23625;48.784;9.336;2024-03-08T10:39:21;43.88;;;18.50;;
37785;SDS011;23625;48.784;9.336;2024-03-08T10:41:51;42.88;;;18.70;;
37785;SDS011;23625;48.784;9.336;2024-03-08T10:46:59;45.72;;;18.17;;
37785;SDS011;23625;48.784;9.336;2024-03-08T10:49:39;45.55;;;18.20;;
37785;SDS011;23625;48.784;9.336;2024-03-08T10:52:20;43.63;;;19.48;;
37785;SDS011;23625;48.784;9.336;2024-03-08T10:54:47;49.45;;;19.38;;
37785;SDS011;23625;48.784;9.336;2024-03-08T10:57:14;45.45;;;18.60;;
37785;SDS011;23625;48.784;9.336;2024-03-08T10:59:44;44.47;;;18.70;;
37785;SDS011;23625;48.784;9.336;2024-03-08T11:02:12;41.55;;;18.63;;
37785;SDS011;23625;48.784;9.336;2024-03-08T11:04:38;45.78;;;18.75;;
37785;SDS011;23625;48.784;9.336;2024-03-08T11:07:03;56.53;;;22.92;;
37785;SDS011;23625;48.784;9.336;2024-03-08T11:14:54;47.47;;;20.25;;
37785;SDS011;23625;48.784;9.336;2024-03-08T11:17:40;44.95;;;19.85;;
37785;SDS011;23625;48.784;9.336;2024-03-08T11:22:40;48.22;;;19.17;;
37785;SDS011;23625;48.784;9.336;2024-03-08T11:25:10;48.53;;;20.30;;
37785;SDS011;23625;48.784;9.336;2024-03-08T11:28:17;44.83;;;19.45;;
37785;SDS011;23625;48.784;9.336;2024-03-08T11:33:15;44.90;;;19.77;;
37785;SDS011;23625;48.784;9.336;2024-03-08T11:35:41;46.50;;;20.23;;
37785;SDS011;23625;48.784;9.336;2024-03-08T11:38:10;41.67;;;19.52;;
37785;SDS011;23625;48.784;9.336;2024-03-08T11:40:36;48.92;;;19.65;;
37785;SDS011;23625;48.784;9.336;2024-03-08T11:43:02;41.47;;;18.75;;
37785;SDS011;23625;48.784;9.336;2024-03-08T11:45:32;42.90;;;18.08;;
37785;SDS011;23625;48.784;9.336;2024-03-08T11:48:06;48.08;;;19.02;;
37785;SDS011;23625;48.784;9.336;2024-03-08T11:50:31;43.92;;;19.90;;
37785;SDS011;23625;48.784;9.336;2024-03-08T11:53:01;46.88;;;19.67;;
37785;SDS011;23625;48.784;9.336;2024-03-08T11:55:28;41.72;;;18.45;;
37785;SDS011;23625;48.784;9.336;2024-03-08T11:58:04;44.28;;;18.52;;
37785;SDS011;23625;48.784;9.336;2024-03-08T12:00:33;43.10;;;17.55;;
37785;SDS011;23625;48.784;9.336;2024-03-08T12:03:04;44.40;;;19.20;;
37785;SDS011;23625;48.784;9.336;2024-03-08T12:05:31;45.72;;;20.50;;
37785;SDS011;23625;48.784;9.336;2024-03-08T12:07:58;45.22;;;19.63;;
37785;SDS011;23625;48.784;9.336;2024-03-08T12:10:24;38.78;;;17.10;;
37785;SDS011;23625;48.784;9.336;2024-03-08T12:12:51;39.58;;;17.80;;
37785;SDS011;23625;48.784;9.336;2024-03-08T12:15:18;42.40;;;18.70;;
37785;SDS011;23625;48.784;9.336;2024-03-08T12:17:48;46.35;;;20.38;;
37785;SDS011;23625;48.784;9.336;2024-03-08T12:20:18;45.40;;;20.25;;
37785;SDS011;23625;48.784;9.336;2024-03-08T12:22:46;43.85;;;21.00;;
37785;SDS011;23625;48.784;9.336;2024-03-08T12:25:12;40.80;;;17.95;;
37785;SDS011;23625;48.784;9.336;2024-03-08T12:27:39;42.15;;;18.40;;
37785;SDS011;23625;48.784;9.336;2024-03-08T12:30:21;41.22;;;17.77;;
37785;SDS011;23625;48.784;9.336;2024-03-08T12:32:57;40.75;;;18.10;;
37785;SDS011;23625;48.784;9.336;2024-03-08T12:35:25;37.55;;;17.65;;
37785;SDS011;23625;48.784;9.336;2024-03-08T12:37:52;36.83;;;18.20;;
37785;SDS011;23625;48.784;9.336;2024-03-08T12:40:26;44.22;;;19.55;;
37785;SDS011;23625;48.784;9.336;2024-03-08T12:42:52;41.78;;;18.42;;
37785;SDS011;23625;48.784;9.336;2024-03-08T12:45:18;42.22;;;18.88;;
37785;SDS011;23625;48.784;9.336;2024-03-08T12:47:43;44.55;;;19.58;;
37785;SDS011;23625;48.784;9.336;2024-03-08T12:50:09;43.05;;;19.35;;
37785;SDS011;23625;48.784;9.336;2024-03-08T12:52:35;41.05;;;17.13;;
37785;SDS011;23625;48.784;9.336;2024-03-08T12:55:01;42.28;;;18.67;;
37785;SDS011;23625;48.784;9.336;2024-03-08T12:57:27;43.65;;;20.42;;
37785;SDS011;23625;48.784;9.336;2024-03-08T12:59:53;44.33;;;21.35;;
37785;SDS011;23625;48.784;9.336;2024-03-08T13:02:19;48.17;;;21.67;;
37785;SDS011;23625;48.784;9.336;2024-03-08T13:04:45;45.63;;;20.88;;
37785;SDS011;23625;48.784;9.336;2024-03-08T13:07:20;39.22;;;18.65;;
37785;SDS011;23625;48.784;9.336;2024-03-08T13:09:46;42.22;;;18.35;;
37785;SDS011;23625;48.784;9.336;2024-03-08T13:12:12;41.85;;;20.30;;
37785;SDS011;23625;48.784;9.336;2024-03-08T13:14:37;40.88;;;19.35;;
37785;SDS011;23625;48.784;9.336;2024-03-08T13:17:05;34.50;;;16.90;;
37785;SDS011;23625;48.784;9.336;2024-03-08T13:19:35;37.92;;;18.80;;
37785;SDS011;23625;48.784;9.336;2024-03-08T13:22:01;40.10;;;18.63;;
37785;SDS011;23625;48.784;9.336;2024-03-08T13:24:29;40.55;;;18.48;;
37785;SDS011;23625;48.784;9.336;2024-03-08T13:26:55;35.45;;;17.20;;
37785;SDS011;23625;48.784;9.336;2024-03-08T13:29:21;36.75;;;18.00;;
37785;SDS011;23625;48.784;9.336;2024-03-08T13:31:47;38.72;;;18.17;;
37785;SDS011;23625;48.784;9.336;2024-03-08T13:34:16;39.78;;;18.75;;
37785;SDS011;23625;48.784;9.336;2024-03-08T13:36:53;37.17;;;18.40;;
37785;SDS011;23625;48.784;9.336;2024-03-08T13:39:19;44.47;;;18.85;;
37785;SDS011;23625;48.784;9.336;2024-03-08T13:41:46;40.42;;;17.77;;
37785;SDS011;23625;48.784;9.336;2024-03-08T13:44:11;40.88;;;17.98;;
37785;SDS011;23625;48.784;9.336;2024-03-08T13:46:37;35.55;;;17.52;;
37785;SDS011;23625;48.784;9.336;2024-03-08T13:49:04;38.08;;;17.88;;
37785;SDS011;23625;48.784;9.336;2024-03-08T13:51:32;39.00;;;17.95;;
37785;SDS011;23625;48.784;9.336;2024-03-08T13:53:58;35.95;;;17.05;;
37785;SDS011;23625;48.784;9.336;2024-03-08T13:56:25;39.83;;;18.27;;
37785;SDS011;23625;48.784;9.336;2024-03-08T13:58:51;39.95;;;19.00;;
37785;SDS011;23625;48.784;9.336;2024-03-08T14:01:17;36.33;;;18.27;;
37785;SDS011;23625;48.784;9.336;2024-03-08T14:03:42;37.70;;;18.05;;
37785;SDS011;23625;48.784;9.336;2024-03-08T14:06:08;53.80;;;25.58;;
37785;SDS011;23625;48.784;9.336;2024-03-08T14:08:35;68.32;;;33.55;;
37785;SDS011;23625;48.784;9.336;2024-03-08T14:11:02;40.95;;;19.15;;
37785;SDS011;23625;48.784;9.336;2024-03-08T14:13:36;37.08;;;17.52;;
37785;SDS011;23625;48.784;9.336;2024-03-08T14:16:05;36.88;;;16.85;;
37785;SDS011;23625;48.784;9.336;2024-03-08T14:18:34;44.22;;;19.27;;
37785;SDS011;23625;48.784;9.336;2024-03-08T14:20:59;41.33;;;18.42;;
37785;SDS011;23625;48.784;9.336;2024-03-08T14:23:25;34.00;;;16.60;;
37785;SDS011;23625;48.784;9.336;2024-03-08T14:25:52;34.40;;;17.05;;
37785;SDS011;23625;48.784;9.336;2024-03-08T14:28:17;35.30;;;17.70;;
37785;SDS011;23625;48.784;9.336;2024-03-08T14:30:44;36.40;;;18.65;;
37785;SDS011;23625;48.784;9.336;2024-03-08T14:33:09;37.42;;;18.58;;
37785;SDS011;23625;48.784;9.336;2024-03-08T14:35:35;33.60;;;17.30;;